sensor_id;sensor_type;location;lat;lon;timestamp;temperature;humidity
44537;DHT22;30245;51.966;6.292;2022-07-29T00:00:01;24.90;39.30
44537;DHT22;30245;51.966;6.292;2022-07-29T00:02:27;24.90;39.30
44537;DHT22;30245;51.966;6.292;2022-07-29T00:04:53;24.80;39.30
44537;DHT22;30245;51.966;6.292;2022-07-29T00:07:19;24.80;39.30
44537;DHT22;30245;51.966;6.292;2022-07-29T00:09:45;24.90;39.40
44537;DHT22;30245;51.966;6.292;2022-07-29T00:12:10;24.80;39.40
44537;DHT22;30245;51.966;6.292;2022-07-29T00:14:37;24.80;39.50
44537;DHT22;30245;51.966;6.292;2022-07-29T00:17:02;24.80;39.50
44537;DHT22;30245;51.966;6.292;2022-07-29T00:19:28;24.80;39.60
44537;DHT22;30245;51.966;6.292;2022-07-29T00:21:54;24.80;39.80
44537;DHT22;30245;51.966;6.292;2022-07-29T00:24:19;24.80;39.90
44537;DHT22;30245;51.966;6.292;2022-07-29T00:26:45;24.70;39.90
44537;DHT22;30245;51.966;6.292;2022-07-29T00:29:11;24.70;40.10
44537;DHT22;30245;51.966;6.292;2022-07-29T00:31:36;24.60;40.10
44537;DHT22;30245;51.966;6.292;2022-07-29T00:34:02;24.70;40.20
44537;DHT22;30245;51.966;6.292;2022-07-29T00:36:28;24.60;40.30
44537;DHT22;30245;51.966;6.292;2022-07-29T00:38:53;24.60;40.40
44537;DHT22;30245;51.966;6.292;2022-07-29T00:41:19;24.60;40.50
44537;DHT22;30245;51.966;6.292;2022-07-29T00:43:45;24.50;40.60
44537;DHT22;30245;51.966;6.292;2022-07-29T00:46:11;24.50;40.80
44537;DHT22;30245;51.966;6.292;2022-07-29T00:48:37;24.40;40.90
44537;DHT22;30245;51.966;6.292;2022-07-29T00:51:05;24.40;41.00
44537;DHT22;30245;51.966;6.292;2022-07-29T00:53:32;24.30;41.10
44537;DHT22;30245;51.966;6.292;2022-07-29T00:55:59;24.30;41.20
44537;DHT22;30245;51.966;6.292;2022-07-29T00:58:26;24.30;41.20
44537;DHT22;30245;51.966;6.292;2022-07-29T01:00:52;24.30;41.40
44537;DHT22;30245;51.966;6.292;2022-07-29T01:03:18;24.20;41.40
44537;DHT22;30245;51.966;6.292;2022-07-29T01:05:45;24.20;41.60
44537;DHT22;30245;51.966;6.292;2022-07-29T01:08:13;24.20;41.70
44537;DHT22;30245;51.966;6.292;2022-07-29T01:10:40;24.10;41.70
44537;DHT22;30245;51.966;6.292;2022-07-29T01:13:07;24.10;41.80
44537;DHT22;30245;51.966;6.292;2022-07-29T01:15:41;24.10;41.90
44537;DHT22;30245;51.966;6.292;2022-07-29T01:18:22;24.10;42.00
44537;DHT22;30245;51.966;6.292;2022-07-29T01:23:42;24.00;42.00
44537;DHT22;30245;51.966;6.292;2022-07-29T01:29:10;24.10;42.10
44537;DHT22;30245;51.966;6.292;2022-07-29T01:34:52;24.00;42.20
44537;DHT22;30245;51.966;6.292;2022-07-29T01:40:11;24.00;42.40
44537;DHT22;30245;51.966;6.292;2022-07-29T01:42:42;24.00;42.40
44537;DHT22;30245;51.966;6.292;2022-07-29T01:45:15;23.90;42.50
44537;DHT22;30245;51.966;6.292;2022-07-29T01:47:46;23.90;42.70
44537;DHT22;30245;51.966;6.292;2022-07-29T01:50:17;23.80;43.50
44537;DHT22;30245;51.966;6.292;2022-07-29T01:52:52;23.70;43.00
44537;DHT22;30245;51.966;6.292;2022-07-29T01:55:20;23.70;43.10
44537;DHT22;30245;51.966;6.292;2022-07-29T01:57:48;23.70;43.20
44537;DHT22;30245;51.966;6.292;2022-07-29T02:00:15;23.60;43.20
44537;DHT22;30245;51.966;6.292;2022-07-29T02:02:43;23.60;43.40
44537;DHT22;30245;51.966;6.292;2022-07-29T02:05:15;23.60;43.50
44537;DHT22;30245;51.966;6.292;2022-07-29T02:07:43;23.60;43.50
44537;DHT22;30245;51.966;6.292;2022-07-29T02:10:11;23.50;43.60
44537;DHT22;30245;51.966;6.292;2022-07-29T02:12:38;23.50;43.70
44537;DHT22;30245;51.966;6.292;2022-07-29T02:15:05;23.40;43.80
44537;DHT22;30245;51.966;6.292;2022-07-29T02:17:35;23.40;43.80
44537;DHT22;30245;51.966;6.292;2022-07-29T02:20:03;23.40;43.90
44537;DHT22;30245;51.966;6.292;2022-07-29T02:22:31;23.40;43.80
44537;DHT22;30245;51.966;6.292;2022-07-29T02:24:59;23.40;43.70
44537;DHT22;30245;51.966;6.292;2022-07-29T02:27:27;23.40;43.80
44537;DHT22;30245;51.966;6.292;2022-07-29T02:29:54;23.40;43.80
44537;DHT22;30245;51.966;6.292;2022-07-29T02:32:24;23.40;43.80
44537;DHT22;30245;51.966;6.292;2022-07-29T02:34:51;23.40;44.10
44537;DHT22;30245;51.966;6.292;2022-07-29T02:37:18;23.40;44.10
44537;DHT22;30245;51.966;6.292;2022-07-29T02:39:44;23.30;44.20
44537;DHT22;30245;51.966;6.292;2022-07-29T02:42:13;23.30;44.20
44537;DHT22;30245;51.966;6.292;2022-07-29T02:44:40;23.30;44.20
44537;DHT22;30245;51.966;6.292;2022-07-29T02:49:57;23.30;44.20
44537;DHT22;30245;51.966;6.292;2022-07-29T02:52:39;23.30;44.20
44537;DHT22;30245;51.966;6.292;2022-07-29T02:55:34;23.20;44.40
44537;DHT22;30245;51.966;6.292;2022-07-29T02:58:25;23.10;44.60
44537;DHT22;30245;51.966;6.292;2022-07-29T03:00:56;23.10;44.80
44537;DHT22;30245;51.966;6.292;2022-07-29T03:03:25;23.20;44.90
44537;DHT22;30245;51.966;6.292;2022-07-29T03:05:55;23.20;44.90
44537;DHT22;30245;51.966;6.292;2022-07-29T03:08:22;23.20;44.90
44537;DHT22;30245;51.966;6.292;2022-07-29T03:10:48;23.20;44.90
44537;DHT22;30245;51.966;6.292;2022-07-29T03:13:14;23.20;44.90
44537;DHT22;30245;51.966;6.292;2022-07-29T03:15:43;23.30;44.90
44537;DHT22;30245;51.966;6.292;2022-07-29T03:18:09;23.30;44.90
44537;DHT22;30245;51.966;6.292;2022-07-29T03:20:35;23.30;44.70
44537;DHT22;30245;51.966;6.292;2022-07-29T03:23:00;23.20;44.70
44537;DHT22;30245;51.966;6.292;2022-07-29T03:25:26;23.20;44.90
44537;DHT22;30245;51.966;6.292;2022-07-29T03:27:52;23.20;45.00
44537;DHT22;30245;51.966;6.292;2022-07-29T03:30:18;23.10;45.00
44537;DHT22;30245;51.966;6.292;2022-07-29T03:32:44;23.10;45.00
44537;DHT22;30245;51.966;6.292;2022-07-29T03:35:09;23.20;45.00
44537;DHT22;30245;51.966;6.292;2022-07-29T03:37:35;23.10;45.00
44537;DHT22;30245;51.966;6.292;2022-07-29T03:40:05;23.10;45.10
44537;DHT22;30245;51.966;6.292;2022-07-29T03:42:33;23.00;45.20
44537;DHT22;30245;51.966;6.292;2022-07-29T03:45:05;22.90;45.40
44537;DHT22;30245;51.966;6.292;2022-07-29T03:47:33;22.90;45.30
44537;DHT22;30245;51.966;6.292;2022-07-29T03:50:02;22.90;45.40
44537;DHT22;30245;51.966;6.292;2022-07-29T03:52:30;22.90;45.50
44537;DHT22;30245;51.966;6.292;2022-07-29T03:54:56;22.90;45.70
44537;DHT22;30245;51.966;6.292;2022-07-29T03:57:25;22.90;46.20
44537;DHT22;30245;51.966;6.292;2022-07-29T03:59:52;22.90;46.70
44537;DHT22;30245;51.966;6.292;2022-07-29T04:02:19;22.90;47.00
44537;DHT22;30245;51.966;6.292;2022-07-29T04:04:45;22.80;47.30
44537;DHT22;30245;51.966;6.292;2022-07-29T04:07:15;22.70;47.40
44537;DHT22;30245;51.966;6.292;2022-07-29T04:09:41;22.60;48.60
44537;DHT22;30245;51.966;6.292;2022-07-29T04:12:07;22.60;48.30
44537;DHT22;30245;51.966;6.292;2022-07-29T04:14:33;22.50;48.80
44537;DHT22;30245;51.966;6.292;2022-07-29T04:17:00;22.50;48.90
44537;DHT22;30245;51.966;6.292;2022-07-29T04:19:26;22.40;49.10
44537;DHT22;30245;51.966;6.292;2022-07-29T04:21:51;22.40;49.30
44537;DHT22;30245;51.966;6.292;2022-07-29T04:24:17;22.40;49.30
44537;DHT22;30245;51.966;6.292;2022-07-29T04:26:43;22.20;49.40
44537;DHT22;30245;51.966;6.292;2022-07-29T04:29:09;22.20;49.80
44537;DHT22;30245;51.966;6.292;2022-07-29T04:31:34;22.10;50.20
44537;DHT22;30245;51.966;6.292;2022-07-29T04:34:00;22.10;50.70
44537;DHT22;30245;51.966;6.292;2022-07-29T04:36:25;22.00;51.00
44537;DHT22;30245;51.966;6.292;2022-07-29T04:38:51;21.90;51.20
44537;DHT22;30245;51.966;6.292;2022-07-29T04:41:17;21.90;51.70
44537;DHT22;30245;51.966;6.292;2022-07-29T04:43:42;21.80;51.80
44537;DHT22;30245;51.966;6.292;2022-07-29T04:46:08;21.70;51.90
44537;DHT22;30245;51.966;6.292;2022-07-29T04:48:34;21.70;52.00
44537;DHT22;30245;51.966;6.292;2022-07-29T04:50:59;21.70;52.10
44537;DHT22;30245;51.966;6.292;2022-07-29T04:53:25;21.70;52.30
44537;DHT22;30245;51.966;6.292;2022-07-29T04:55:51;21.70;52.30
44537;DHT22;30245;51.966;6.292;2022-07-29T04:58:17;21.70;52.30
44537;DHT22;30245;51.966;6.292;2022-07-29T05:00:42;21.70;52.20
44537;DHT22;30245;51.966;6.292;2022-07-29T05:03:08;21.70;52.40
44537;DHT22;30245;51.966;6.292;2022-07-29T05:05:34;21.70;52.50
44537;DHT22;30245;51.966;6.292;2022-07-29T05:07:59;21.70;52.30
44537;DHT22;30245;51.966;6.292;2022-07-29T05:10:25;21.70;52.20
44537;DHT22;30245;51.966;6.292;2022-07-29T05:12:50;21.70;52.30
44537;DHT22;30245;51.966;6.292;2022-07-29T05:15:16;21.70;52.30
44537;DHT22;30245;51.966;6.292;2022-07-29T05:17:43;21.60;52.20
44537;DHT22;30245;51.966;6.292;2022-07-29T05:20:09;21.60;53.00
44537;DHT22;30245;51.966;6.292;2022-07-29T05:22:35;21.50;52.40
44537;DHT22;30245;51.966;6.292;2022-07-29T05:25:00;21.50;52.50
44537;DHT22;30245;51.966;6.292;2022-07-29T05:27:26;21.50;52.70
44537;DHT22;30245;51.966;6.292;2022-07-29T05:29:51;21.50;52.80
44537;DHT22;30245;51.966;6.292;2022-07-29T05:32:17;21.50;52.80
44537;DHT22;30245;51.966;6.292;2022-07-29T05:34:43;21.50;52.80
44537;DHT22;30245;51.966;6.292;2022-07-29T05:37:08;21.60;52.80
44537;DHT22;30245;51.966;6.292;2022-07-29T05:39:34;21.60;52.80
44537;DHT22;30245;51.966;6.292;2022-07-29T05:42:00;21.50;52.80
44537;DHT22;30245;51.966;6.292;2022-07-29T05:44:25;21.60;52.80
44537;DHT22;30245;51.966;6.292;2022-07-29T05:46:51;21.70;52.80
44537;DHT22;30245;51.966;6.292;2022-07-29T05:49:16;21.70;52.70
44537;DHT22;30245;51.966;6.292;2022-07-29T05:51:42;21.70;52.60
44537;DHT22;30245;51.966;6.292;2022-07-29T05:54:08;21.80;52.60
44537;DHT22;30245;51.966;6.292;2022-07-29T05:56:36;21.90;52.60
44537;DHT22;30245;51.966;6.292;2022-07-29T05:59:02;21.90;52.50
44537;DHT22;30245;51.966;6.292;2022-07-29T06:01:28;21.90;52.50
44537;DHT22;30245;51.966;6.292;2022-07-29T06:03:54;22.00;52.50
44537;DHT22;30245;51.966;6.292;2022-07-29T06:06:19;22.00;52.40
44537;DHT22;30245;51.966;6.292;2022-07-29T06:08:45;22.00;52.50
44537;DHT22;30245;51.966;6.292;2022-07-29T06:11:10;22.00;52.50
44537;DHT22;30245;51.966;6.292;2022-07-29T06:13:36;22.00;52.40
44537;DHT22;30245;51.966;6.292;2022-07-29T06:16:02;22.10;52.50
44537;DHT22;30245;51.966;6.292;2022-07-29T06:18:28;22.10;52.50
44537;DHT22;30245;51.966;6.292;2022-07-29T06:20:54;22.10;52.50
44537;DHT22;30245;51.966;6.292;2022-07-29T06:23:20;22.00;52.40
44537;DHT22;30245;51.966;6.292;2022-07-29T06:25:46;22.10;52.30
44537;DHT22;30245;51.966;6.292;2022-07-29T06:28:12;22.10;52.10
44537;DHT22;30245;51.966;6.292;2022-07-29T06:30:38;22.10;52.10
44537;DHT22;30245;51.966;6.292;2022-07-29T06:33:04;22.20;51.90
44537;DHT22;30245;51.966;6.292;2022-07-29T06:35:33;22.20;51.80
44537;DHT22;30245;51.966;6.292;2022-07-29T06:38:00;22.30;51.80
44537;DHT22;30245;51.966;6.292;2022-07-29T06:40:26;22.30;51.60
44537;DHT22;30245;51.966;6.292;2022-07-29T06:43:10;22.20;51.50
44537;DHT22;30245;51.966;6.292;2022-07-29T06:45:36;22.20;51.50
44537;DHT22;30245;51.966;6.292;2022-07-29T06:48:02;22.20;51.40
44537;DHT22;30245;51.966;6.292;2022-07-29T06:50:27;22.30;51.40
44537;DHT22;30245;51.966;6.292;2022-07-29T06:52:53;22.30;51.40
44537;DHT22;30245;51.966;6.292;2022-07-29T06:55:19;22.30;52.00
44537;DHT22;30245;51.966;6.292;2022-07-29T06:57:45;22.30;51.40
44537;DHT22;30245;51.966;6.292;2022-07-29T07:00:12;22.30;51.20
44537;DHT22;30245;51.966;6.292;2022-07-29T07:02:38;22.40;51.30
44537;DHT22;30245;51.966;6.292;2022-07-29T07:05:03;22.40;51.20
44537;DHT22;30245;51.966;6.292;2022-07-29T07:07:31;22.50;51.20
44537;DHT22;30245;51.966;6.292;2022-07-29T07:09:56;22.50;51.10
44537;DHT22;30245;51.966;6.292;2022-07-29T07:12:22;22.60;51.10
44537;DHT22;30245;51.966;6.292;2022-07-29T07:14:48;22.70;50.90
44537;DHT22;30245;51.966;6.292;2022-07-29T07:17:14;22.80;50.60
44537;DHT22;30245;51.966;6.292;2022-07-29T07:19:39;22.80;50.40
44537;DHT22;30245;51.966;6.292;2022-07-29T07:22:05;22.80;50.20
44537;DHT22;30245;51.966;6.292;2022-07-29T07:24:30;22.90;50.30
44537;DHT22;30245;51.966;6.292;2022-07-29T07:26:56;22.90;50.20
44537;DHT22;30245;51.966;6.292;2022-07-29T07:29:22;23.00;50.20
44537;DHT22;30245;51.966;6.292;2022-07-29T07:31:48;23.00;50.10
44537;DHT22;30245;51.966;6.292;2022-07-29T07:34:13;23.00;50.10
44537;DHT22;30245;51.966;6.292;2022-07-29T07:36:39;23.00;50.10
44537;DHT22;30245;51.966;6.292;2022-07-29T07:39:05;23.00;50.00
44537;DHT22;30245;51.966;6.292;2022-07-29T07:41:30;23.00;49.90
44537;DHT22;30245;51.966;6.292;2022-07-29T07:43:56;22.90;49.80
44537;DHT22;30245;51.966;6.292;2022-07-29T07:46:22;22.90;50.10
44537;DHT22;30245;51.966;6.292;2022-07-29T07:48:47;22.80;50.10
44537;DHT22;30245;51.966;6.292;2022-07-29T07:51:13;22.90;50.00
44537;DHT22;30245;51.966;6.292;2022-07-29T07:53:39;22.90;49.90
44537;DHT22;30245;51.966;6.292;2022-07-29T07:56:04;22.90;49.90
44537;DHT22;30245;51.966;6.292;2022-07-29T07:58:31;22.90;49.80
44537;DHT22;30245;51.966;6.292;2022-07-29T08:00:57;23.00;49.60
44537;DHT22;30245;51.966;6.292;2022-07-29T08:03:23;23.00;49.40
44537;DHT22;30245;51.966;6.292;2022-07-29T08:05:48;23.10;49.30
44537;DHT22;30245;51.966;6.292;2022-07-29T08:08:16;23.10;49.30
44537;DHT22;30245;51.966;6.292;2022-07-29T08:10:41;23.10;49.20
44537;DHT22;30245;51.966;6.292;2022-07-29T08:13:22;23.20;49.10
44537;DHT22;30245;51.966;6.292;2022-07-29T08:15:48;23.20;49.00
44537;DHT22;30245;51.966;6.292;2022-07-29T08:18:26;23.30;49.00
44537;DHT22;30245;51.966;6.292;2022-07-29T08:20:52;23.20;48.80
44537;DHT22;30245;51.966;6.292;2022-07-29T08:23:18;23.30;48.90
44537;DHT22;30245;51.966;6.292;2022-07-29T08:25:46;23.30;49.00
44537;DHT22;30245;51.966;6.292;2022-07-29T08:28:12;23.40;48.90
44537;DHT22;30245;51.966;6.292;2022-07-29T08:30:37;23.40;48.80
44537;DHT22;30245;51.966;6.292;2022-07-29T08:33:03;23.50;48.80
44537;DHT22;30245;51.966;6.292;2022-07-29T08:35:29;23.50;48.90
44537;DHT22;30245;51.966;6.292;2022-07-29T08:37:54;23.50;49.10
44537;DHT22;30245;51.966;6.292;2022-07-29T08:40:22;23.50;49.20
44537;DHT22;30245;51.966;6.292;2022-07-29T08:42:50;23.50;49.30
44537;DHT22;30245;51.966;6.292;2022-07-29T08:45:16;23.50;49.30
44537;DHT22;30245;51.966;6.292;2022-07-29T08:47:44;23.50;49.40
44537;DHT22;30245;51.966;6.292;2022-07-29T08:50:10;23.50;49.40
44537;DHT22;30245;51.966;6.292;2022-07-29T08:52:37;23.50;49.30
44537;DHT22;30245;51.966;6.292;2022-07-29T08:55:08;23.60;49.40
44537;DHT22;30245;51.966;6.292;2022-07-29T08:57:35;23.60;49.60
44537;DHT22;30245;51.966;6.292;2022-07-29T09:00:03;23.60;49.80
44537;DHT22;30245;51.966;6.292;2022-07-29T09:02:35;23.50;50.50
44537;DHT22;30245;51.966;6.292;2022-07-29T09:05:01;23.50;50.10
44537;DHT22;30245;51.966;6.292;2022-07-29T09:07:28;23.50;50.30
44537;DHT22;30245;51.966;6.292;2022-07-29T09:09:54;23.50;50.20
44537;DHT22;30245;51.966;6.292;2022-07-29T09:12:20;23.50;50.30
44537;DHT22;30245;51.966;6.292;2022-07-29T09:14:47;23.40;50.30
44537;DHT22;30245;51.966;6.292;2022-07-29T09:17:14;23.40;50.30
44537;DHT22;30245;51.966;6.292;2022-07-29T09:19:42;23.30;50.20
44537;DHT22;30245;51.966;6.292;2022-07-29T09:22:08;23.40;50.90
44537;DHT22;30245;51.966;6.292;2022-07-29T09:24:41;23.50;50.20
44537;DHT22;30245;51.966;6.292;2022-07-29T09:29:36;23.60;50.10
44537;DHT22;30245;51.966;6.292;2022-07-29T09:32:07;23.60;50.10
44537;DHT22;30245;51.966;6.292;2022-07-29T09:34:34;23.50;50.00
44537;DHT22;30245;51.966;6.292;2022-07-29T09:37:00;23.50;50.10
44537;DHT22;30245;51.966;6.292;2022-07-29T09:39:36;23.60;50.30
44537;DHT22;30245;51.966;6.292;2022-07-29T09:42:05;23.60;50.30
44537;DHT22;30245;51.966;6.292;2022-07-29T09:44:48;23.70;50.10
44537;DHT22;30245;51.966;6.292;2022-07-29T09:47:16;23.80;49.90
44537;DHT22;30245;51.966;6.292;2022-07-29T09:49:54;23.90;49.80
44537;DHT22;30245;51.966;6.292;2022-07-29T09:52:20;23.90;49.50
44537;DHT22;30245;51.966;6.292;2022-07-29T09:54:46;24.10;49.40
44537;DHT22;30245;51.966;6.292;2022-07-29T09:57:24;24.20;49.10
44537;DHT22;30245;51.966;6.292;2022-07-29T10:00:13;24.30;49.00
44537;DHT22;30245;51.966;6.292;2022-07-29T10:02:41;24.40;48.80
44537;DHT22;30245;51.966;6.292;2022-07-29T10:05:22;24.60;48.60
44537;DHT22;30245;51.966;6.292;2022-07-29T10:07:56;24.70;48.40
44537;DHT22;30245;51.966;6.292;2022-07-29T10:10:30;24.80;48.30
44537;DHT22;30245;51.966;6.292;2022-07-29T10:12:58;24.90;47.90
44537;DHT22;30245;51.966;6.292;2022-07-29T10:15:26;25.00;47.50
44537;DHT22;30245;51.966;6.292;2022-07-29T10:17:53;25.00;47.60
44537;DHT22;30245;51.966;6.292;2022-07-29T10:20:21;25.00;47.50
44537;DHT22;30245;51.966;6.292;2022-07-29T10:22:48;25.10;47.50
44537;DHT22;30245;51.966;6.292;2022-07-29T10:25:15;25.30;47.30
44537;DHT22;30245;51.966;6.292;2022-07-29T10:27:42;25.30;47.10
44537;DHT22;30245;51.966;6.292;2022-07-29T10:30:09;25.40;47.10
44537;DHT22;30245;51.966;6.292;2022-07-29T10:38:43;25.80;46.60
44537;DHT22;30245;51.966;6.292;2022-07-29T10:44:07;26.00;46.30
44537;DHT22;30245;51.966;6.292;2022-07-29T10:46:38;26.00;46.10
44537;DHT22;30245;51.966;6.292;2022-07-29T10:57:12;26.70;44.90
44537;DHT22;30245;51.966;6.292;2022-07-29T10:59:45;26.90;45.40
44537;DHT22;30245;51.966;6.292;2022-07-29T11:07:37;27.30;43.70
44537;DHT22;30245;51.966;6.292;2022-07-29T11:15:07;27.60;42.90
44537;DHT22;30245;51.966;6.292;2022-07-29T11:18:07;27.80;42.70
44537;DHT22;30245;51.966;6.292;2022-07-29T11:20:43;27.90;42.40
44537;DHT22;30245;51.966;6.292;2022-07-29T11:25:45;28.40;42.00
44537;DHT22;30245;51.966;6.292;2022-07-29T11:28:17;28.70;41.90
44537;DHT22;30245;51.966;6.292;2022-07-29T11:30:52;29.10;41.40
44537;DHT22;30245;51.966;6.292;2022-07-29T11:33:32;29.50;40.70
44537;DHT22;30245;51.966;6.292;2022-07-29T11:38:34;30.20;39.60
44537;DHT22;30245;51.966;6.292;2022-07-29T11:43:48;31.00;38.30
44537;DHT22;30245;51.966;6.292;2022-07-29T11:46:15;31.30;37.90
44537;DHT22;30245;51.966;6.292;2022-07-29T11:48:42;31.70;37.30
44537;DHT22;30245;51.966;6.292;2022-07-29T11:51:11;31.90;36.80
44537;DHT22;30245;51.966;6.292;2022-07-29T11:53:39;32.00;36.50
44537;DHT22;30245;51.966;6.292;2022-07-29T11:56:08;32.20;36.50
44537;DHT22;30245;51.966;6.292;2022-07-29T11:58:34;32.30;36.00
44537;DHT22;30245;51.966;6.292;2022-07-29T12:01:01;32.20;35.60
44537;DHT22;30245;51.966;6.292;2022-07-29T12:03:28;32.10;35.30
44537;DHT22;30245;51.966;6.292;2022-07-29T12:05:54;32.00;35.30
44537;DHT22;30245;51.966;6.292;2022-07-29T12:08:21;32.00;35.30
44537;DHT22;30245;51.966;6.292;2022-07-29T12:10:49;32.00;35.30
44537;DHT22;30245;51.966;6.292;2022-07-29T12:13:17;32.20;35.00
44537;DHT22;30245;51.966;6.292;2022-07-29T12:15:55;32.40;34.60
44537;DHT22;30245;51.966;6.292;2022-07-29T12:18:22;32.60;34.40
44537;DHT22;30245;51.966;6.292;2022-07-29T12:20:48;32.80;34.30
44537;DHT22;30245;51.966;6.292;2022-07-29T12:23:21;33.00;34.40
44537;DHT22;30245;51.966;6.292;2022-07-29T12:25:47;33.20;34.20
44537;DHT22;30245;51.966;6.292;2022-07-29T12:28:14;33.30;33.80
44537;DHT22;30245;51.966;6.292;2022-07-29T12:35:44;33.30;32.40
44537;DHT22;30245;51.966;6.292;2022-07-29T12:38:12;33.30;32.30
44537;DHT22;30245;51.966;6.292;2022-07-29T12:40:38;33.20;32.60
44537;DHT22;30245;51.966;6.292;2022-07-29T12:43:13;33.30;32.70
44537;DHT22;30245;51.966;6.292;2022-07-29T12:45:41;33.30;32.20
44537;DHT22;30245;51.966;6.292;2022-07-29T12:48:07;33.40;32.10
44537;DHT22;30245;51.966;6.292;2022-07-29T12:50:37;33.70;32.20
44537;DHT22;30245;51.966;6.292;2022-07-29T12:53:16;33.80;31.80
44537;DHT22;30245;51.966;6.292;2022-07-29T12:55:46;33.90;31.80
44537;DHT22;30245;51.966;6.292;2022-07-29T12:58:46;33.90;31.70
44537;DHT22;30245;51.966;6.292;2022-07-29T13:01:13;33.80;31.70
44537;DHT22;30245;51.966;6.292;2022-07-29T13:03:43;33.80;31.60
44537;DHT22;30245;51.966;6.292;2022-07-29T13:09:07;34.00;31.60
44537;DHT22;30245;51.966;6.292;2022-07-29T13:11:38;34.00;31.70
44537;DHT22;30245;51.966;6.292;2022-07-29T13:14:06;34.00;31.80
44537;DHT22;30245;51.966;6.292;2022-07-29T13:16:32;34.00;32.00
44537;DHT22;30245;51.966;6.292;2022-07-29T13:19:09;34.00;32.00
44537;DHT22;30245;51.966;6.292;2022-07-29T13:21:35;34.00;31.80
44537;DHT22;30245;51.966;6.292;2022-07-29T13:24:01;34.00;31.50
44537;DHT22;30245;51.966;6.292;2022-07-29T13:26:26;34.00;31.50
44537;DHT22;30245;51.966;6.292;2022-07-29T13:28:53;33.90;31.60
44537;DHT22;30245;51.966;6.292;2022-07-29T13:31:20;34.00;31.70
44537;DHT22;30245;51.966;6.292;2022-07-29T13:33:45;34.10;31.70
44537;DHT22;30245;51.966;6.292;2022-07-29T13:36:11;34.20;31.50
44537;DHT22;30245;51.966;6.292;2022-07-29T13:38:36;34.20;31.40
44537;DHT22;30245;51.966;6.292;2022-07-29T13:41:02;34.10;31.40
44537;DHT22;30245;51.966;6.292;2022-07-29T13:43:28;34.20;31.20
44537;DHT22;30245;51.966;6.292;2022-07-29T13:45:53;34.30;31.30
44537;DHT22;30245;51.966;6.292;2022-07-29T13:48:19;34.30;31.10
44537;DHT22;30245;51.966;6.292;2022-07-29T13:50:45;34.40;31.10
44537;DHT22;30245;51.966;6.292;2022-07-29T13:53:12;34.20;31.20
44537;DHT22;30245;51.966;6.292;2022-07-29T13:55:37;34.10;31.50
44537;DHT22;30245;51.966;6.292;2022-07-29T13:58:03;34.10;31.60
44537;DHT22;30245;51.966;6.292;2022-07-29T14:00:29;34.20;31.50
44537;DHT22;30245;51.966;6.292;2022-07-29T14:02:54;34.10;31.50
44537;DHT22;30245;51.966;6.292;2022-07-29T14:05:20;34.00;31.50
44537;DHT22;30245;51.966;6.292;2022-07-29T14:07:46;34.00;31.70
44537;DHT22;30245;51.966;6.292;2022-07-29T14:10:11;34.10;31.70
44537;DHT22;30245;51.966;6.292;2022-07-29T14:12:37;34.30;31.60
44537;DHT22;30245;51.966;6.292;2022-07-29T14:15:04;34.50;31.40
44537;DHT22;30245;51.966;6.292;2022-07-29T14:17:29;34.80;31.00
44537;DHT22;30245;51.966;6.292;2022-07-29T14:19:55;35.00;30.60
44537;DHT22;30245;51.966;6.292;2022-07-29T14:22:21;35.30;30.30
44537;DHT22;30245;51.966;6.292;2022-07-29T14:24:46;35.50;30.00
44537;DHT22;30245;51.966;6.292;2022-07-29T14:27:12;35.80;29.90
44537;DHT22;30245;51.966;6.292;2022-07-29T14:29:38;36.00;29.60
44537;DHT22;30245;51.966;6.292;2022-07-29T14:32:07;36.30;29.60
44537;DHT22;30245;51.966;6.292;2022-07-29T14:34:35;36.50;29.20
44537;DHT22;30245;51.966;6.292;2022-07-29T14:37:00;36.60;29.20
44537;DHT22;30245;51.966;6.292;2022-07-29T14:39:26;36.70;29.30
44537;DHT22;30245;51.966;6.292;2022-07-29T14:41:52;36.70;29.40
44537;DHT22;30245;51.966;6.292;2022-07-29T14:44:18;36.80;29.40
44537;DHT22;30245;51.966;6.292;2022-07-29T14:46:44;37.00;29.30
44537;DHT22;30245;51.966;6.292;2022-07-29T14:49:09;37.10;29.10
44537;DHT22;30245;51.966;6.292;2022-07-29T14:51:35;37.20;29.10
44537;DHT22;30245;51.966;6.292;2022-07-29T14:54:03;37.30;29.10
44537;DHT22;30245;51.966;6.292;2022-07-29T14:56:28;37.30;29.00
44537;DHT22;30245;51.966;6.292;2022-07-29T14:58:56;37.40;29.10
44537;DHT22;30245;51.966;6.292;2022-07-29T15:01:21;37.50;29.00
44537;DHT22;30245;51.966;6.292;2022-07-29T15:03:47;37.70;29.00
44537;DHT22;30245;51.966;6.292;2022-07-29T15:06:12;37.70;28.90
44537;DHT22;30245;51.966;6.292;2022-07-29T15:08:38;37.80;28.90
44537;DHT22;30245;51.966;6.292;2022-07-29T15:11:04;38.00;28.90
44537;DHT22;30245;51.966;6.292;2022-07-29T15:13:29;38.10;28.80
44537;DHT22;30245;51.966;6.292;2022-07-29T15:15:55;38.20;28.90
44537;DHT22;30245;51.966;6.292;2022-07-29T15:18:21;38.20;29.00
44537;DHT22;30245;51.966;6.292;2022-07-29T15:20:49;38.20;29.00
44537;DHT22;30245;51.966;6.292;2022-07-29T15:23:14;38.20;28.90
44537;DHT22;30245;51.966;6.292;2022-07-29T15:25:40;38.00;28.90
44537;DHT22;30245;51.966;6.292;2022-07-29T15:28:06;37.90;29.60
44537;DHT22;30245;51.966;6.292;2022-07-29T15:30:33;38.10;29.20
44537;DHT22;30245;51.966;6.292;2022-07-29T15:33:01;38.20;29.10
44537;DHT22;30245;51.966;6.292;2022-07-29T15:35:27;38.30;29.00
44537;DHT22;30245;51.966;6.292;2022-07-29T15:37:53;38.50;28.80
44537;DHT22;30245;51.966;6.292;2022-07-29T15:40:18;38.40;28.70
44537;DHT22;30245;51.966;6.292;2022-07-29T15:42:44;38.40;28.70
44537;DHT22;30245;51.966;6.292;2022-07-29T15:45:10;38.50;28.60
44537;DHT22;30245;51.966;6.292;2022-07-29T15:47:36;38.60;28.50
44537;DHT22;30245;51.966;6.292;2022-07-29T15:50:02;38.70;28.90
44537;DHT22;30245;51.966;6.292;2022-07-29T15:52:27;38.60;28.30
44537;DHT22;30245;51.966;6.292;2022-07-29T15:54:55;38.80;28.50
44537;DHT22;30245;51.966;6.292;2022-07-29T15:57:24;39.10;28.30
44537;DHT22;30245;51.966;6.292;2022-07-29T15:59:49;39.40;28.10
44537;DHT22;30245;51.966;6.292;2022-07-29T16:02:16;39.60;28.00
44537;DHT22;30245;51.966;6.292;2022-07-29T16:04:42;39.70;27.60
44537;DHT22;30245;51.966;6.292;2022-07-29T16:07:07;39.80;27.20
44537;DHT22;30245;51.966;6.292;2022-07-29T16:09:33;39.80;27.00
44537;DHT22;30245;51.966;6.292;2022-07-29T16:11:59;39.70;26.80
44537;DHT22;30245;51.966;6.292;2022-07-29T16:14:24;39.70;26.80
44537;DHT22;30245;51.966;6.292;2022-07-29T16:16:50;39.90;26.60
44537;DHT22;30245;51.966;6.292;2022-07-29T16:19:16;40.00;26.90
44537;DHT22;30245;51.966;6.292;2022-07-29T16:21:42;40.10;26.30
44537;DHT22;30245;51.966;6.292;2022-07-29T16:24:08;40.20;26.10
44537;DHT22;30245;51.966;6.292;2022-07-29T16:26:34;40.20;26.00
44537;DHT22;30245;51.966;6.292;2022-07-29T16:29:00;40.20;26.00
44537;DHT22;30245;51.966;6.292;2022-07-29T16:31:26;40.30;26.00